sensor_id;sensor_type;location;lat;lon;timestamp;pressure;altitude;pressure_sealevel;temperature;humidity
12781;BME280;6454;43.304;24.344;2024-03-02T00:01:58;99904.53;;;7.88;85.18
12781;BME280;6454;43.304;24.344;2024-03-02T00:04:24;99894.91;;;7.90;84.83
12781;BME280;6454;43.304;24.344;2024-03-02T00:06:52;99915.56;;;7.96;83.45
12781;BME280;6454;43.304;24.344;2024-03-02T00:09:20;99949.19;;;7.97;82.91
12781;BME280;6454;43.304;24.344;2024-03-02T00:11:45;99940.47;;;7.95;83.88
12781;BME280;6454;43.304;24.344;2024-03-02T00:14:11;99928.81;;;7.89;84.00
12781;BME280;6454;43.304;24.344;2024-03-02T00:16:37;99930.84;;;7.97;85.29
12781;BME280;6454;43.304;24.344;2024-03-02T00:19:03;99929.53;;;7.95;84.53
12781;BME280;6454;43.304;24.344;2024-03-02T00:21:32;99924.56;;;7.97;83.10
12781;BME280;6454;43.304;24.344;2024-03-02T00:23:58;99900.97;;;7.87;84.23
12781;BME280;6454;43.304;24.344;2024-03-02T00:26:25;99907.16;;;7.93;83.71
12781;BME280;6454;43.304;24.344;2024-03-02T00:28:54;99911.91;;;8.01;84.50
12781;BME280;6454;43.304;24.344;2024-03-02T00:31:22;99913.75;;;8.05;84.31
12781;BME280;6454;43.304;24.344;2024-03-02T00:33:48;99900.47;;;7.99;84.34
12781;BME280;6454;43.304;24.344;2024-03-02T00:36:15;99906.84;;;8.08;83.12
12781;BME280;6454;43.304;24.344;2024-03-02T00:38:48;99909.09;;;8.06;83.36
12781;BME280;6454;43.304;24.344;2024-03-02T00:41:23;99889.72;;;8.02;83.78
12781;BME280;6454;43.304;24.344;2024-03-02T00:46:20;99897.81;;;8.07;83.96
12781;BME280;6454;43.304;24.344;2024-03-02T00:48:58;99876.25;;;8.06;83.75
12781;BME280;6454;43.304;24.344;2024-03-02T00:51:25;99882.53;;;8.06;82.95
12781;BME280;6454;43.304;24.344;2024-03-02T00:53:55;99889.63;;;8.07;84.48
12781;BME280;6454;43.304;24.344;2024-03-02T00:56:22;99880.09;;;8.05;84.27
12781;BME280;6454;43.304;24.344;2024-03-02T00:58:48;99875.84;;;7.99;84.14
12781;BME280;6454;43.304;24.344;2024-03-02T01:01:13;99902.78;;;8.05;83.47
12781;BME280;6454;43.304;24.344;2024-03-02T01:03:39;99886.81;;;8.12;84.05
12781;BME280;6454;43.304;24.344;2024-03-02T01:06:04;99884.13;;;8.07;83.25
12781;BME280;6454;43.304;24.344;2024-03-02T01:08:30;99900.97;;;8.14;83.34
12781;BME280;6454;43.304;24.344;2024-03-02T01:10:56;99893.97;;;8.08;83.84
12781;BME280;6454;43.304;24.344;2024-03-02T01:13:22;99881.41;;;8.07;83.43
12781;BME280;6454;43.304;24.344;2024-03-02T01:15:49;99885.16;;;8.11;84.27
12781;BME280;6454;43.304;24.344;2024-03-02T01:18:14;99887.78;;;8.16;83.18
12781;BME280;6454;43.304;24.344;2024-03-02T01:20:40;99884.13;;;8.07;82.55
12781;BME280;6454;43.304;24.344;2024-03-02T01:23:05;99872.31;;;8.12;82.62
12781;BME280;6454;43.304;24.344;2024-03-02T01:25:31;99869.75;;;8.02;83.62
12781;BME280;6454;43.304;24.344;2024-03-02T01:27:56;99886.47;;;8.14;83.63
12781;BME280;6454;43.304;24.344;2024-03-02T01:30:21;99891.63;;;8.15;82.98
12781;BME280;6454;43.304;24.344;2024-03-02T01:32:47;99891.63;;;8.15;84.38
12781;BME280;6454;43.304;24.344;2024-03-02T01:35:13;99888.41;;;8.13;82.78
12781;BME280;6454;43.304;24.344;2024-03-02T01:37:38;99884.06;;;8.12;84.43
12781;BME280;6454;43.304;24.344;2024-03-02T01:40:04;99880.63;;;8.20;83.80
12781;BME280;6454;43.304;24.344;2024-03-02T01:42:37;99889.13;;;8.19;83.63
12781;BME280;6454;43.304;24.344;2024-03-02T01:45:08;99878.06;;;8.10;84.11
12781;BME280;6454;43.304;24.344;2024-03-02T01:47:35;99880.50;;;8.12;84.34
12781;BME280;6454;43.304;24.344;2024-03-02T01:50:00;99869.66;;;8.20;84.27
12781;BME280;6454;43.304;24.344;2024-03-02T01:52:27;99877.88;;;8.20;83.17
12781;BME280;6454;43.304;24.344;2024-03-02T01:54:52;99877.16;;;8.15;83.31
12781;BME280;6454;43.304;24.344;2024-03-02T01:57:18;99874.63;;;8.18;83.17
12781;BME280;6454;43.304;24.344;2024-03-02T01:59:46;99865.78;;;8.21;84.92
12781;BME280;6454;43.304;24.344;2024-03-02T02:02:13;99870.16;;;8.22;83.29
12781;BME280;6454;43.304;24.344;2024-03-02T02:04:39;99863.50;;;8.15;84.81
12781;BME280;6454;43.304;24.344;2024-03-02T02:07:05;99866.41;;;8.18;83.79
12781;BME280;6454;43.304;24.344;2024-03-02T02:09:31;99866.94;;;8.20;83.21
12781;BME280;6454;43.304;24.344;2024-03-02T02:11:57;99864.91;;;8.26;84.13
12781;BME280;6454;43.304;24.344;2024-03-02T02:14:23;99870.38;;;8.26;82.83
12781;BME280;6454;43.304;24.344;2024-03-02T02:16:48;99882.09;;;8.26;84.37
12781;BME280;6454;43.304;24.344;2024-03-02T02:19:15;99870.16;;;8.22;84.02
12781;BME280;6454;43.304;24.344;2024-03-02T02:21:44;99872.50;;;8.29;84.72
12781;BME280;6454;43.304;24.344;2024-03-02T02:24:09;99871.16;;;8.26;83.05
12781;BME280;6454;43.304;24.344;2024-03-02T02:26:35;99860.63;;;8.20;84.64
12781;BME280;6454;43.304;24.344;2024-03-02T02:29:01;99868.75;;;8.25;83.80
12781;BME280;6454;43.304;24.344;2024-03-02T02:31:26;99854.75;;;8.13;84.64
12781;BME280;6454;43.304;24.344;2024-03-02T02:33:52;99868.75;;;8.25;84.77
12781;BME280;6454;43.304;24.344;2024-03-02T02:36:17;99870.78;;;8.19;84.67
12781;BME280;6454;43.304;24.344;2024-03-02T02:38:47;99860.63;;;8.20;84.61
12781;BME280;6454;43.304;24.344;2024-03-02T02:41:14;99865.41;;;8.14;84.09
12781;BME280;6454;43.304;24.344;2024-03-02T02:43:39;99857.47;;;8.13;85.10
12781;BME280;6454;43.304;24.344;2024-03-02T02:46:05;99873.72;;;8.23;85.29
12781;BME280;6454;43.304;24.344;2024-03-02T02:48:31;99865.50;;;8.23;84.91
12781;BME280;6454;43.304;24.344;2024-03-02T02:50:56;99865.09;;;8.16;83.98
12781;BME280;6454;43.304;24.344;2024-03-02T02:53:21;99873.00;;;8.17;84.65
12781;BME280;6454;43.304;24.344;2024-03-02T02:55:47;99889.13;;;8.19;84.05
12781;BME280;6454;43.304;24.344;2024-03-02T02:58:12;99894.47;;;8.24;85.63
12781;BME280;6454;43.304;24.344;2024-03-02T03:00:38;99882.75;;;8.23;83.69
12781;BME280;6454;43.304;24.344;2024-03-02T03:03:04;99882.97;;;8.27;84.33
12781;BME280;6454;43.304;24.344;2024-03-02T03:05:29;99883.44;;;8.29;84.29
12781;BME280;6454;43.304;24.344;2024-03-02T03:07:54;99863.06;;;8.21;85.57
12781;BME280;6454;43.304;24.344;2024-03-02T03:10:20;99877.88;;;8.20;85.45
12781;BME280;6454;43.304;24.344;2024-03-02T03:12:48;99871.78;;;8.23;84.12
12781;BME280;6454;43.304;24.344;2024-03-02T03:15:14;99842.19;;;8.12;84.93
12781;BME280;6454;43.304;24.344;2024-03-02T03:17:41;99877.97;;;8.15;84.85
12781;BME280;6454;43.304;24.344;2024-03-02T03:20:07;99869.84;;;8.10;86.43
12781;BME280;6454;43.304;24.344;2024-03-02T03:22:35;99859.22;;;8.09;85.03
12781;BME280;6454;43.304;24.344;2024-03-02T03:25:01;99873.63;;;8.14;85.12
12781;BME280;6454;43.304;24.344;2024-03-02T03:27:27;99877.28;;;8.23;85.59
12781;BME280;6454;43.304;24.344;2024-03-02T03:29:52;99887.69;;;8.21;85.73
12781;BME280;6454;43.304;24.344;2024-03-02T03:32:17;99871.97;;;8.13;85.22
12781;BME280;6454;43.304;24.344;2024-03-02T03:34:43;99874.63;;;8.05;84.56
12781;BME280;6454;43.304;24.344;2024-03-02T03:37:08;99874.00;;;8.08;86.26
12781;BME280;6454;43.304;24.344;2024-03-02T03:39:35;99874.22;;;8.11;85.52
12781;BME280;6454;43.304;24.344;2024-03-02T03:42:03;99865.69;;;8.13;85.68
12781;BME280;6454;43.304;24.344;2024-03-02T03:44:29;99868.53;;;8.21;85.48
12781;BME280;6454;43.304;24.344;2024-03-02T03:46:55;99847.34;;;8.13;85.34
12781;BME280;6454;43.304;24.344;2024-03-02T03:49:20;99851.72;;;8.14;86.15
12781;BME280;6454;43.304;24.344;2024-03-02T03:51:46;99877.88;;;8.20;85.86
12781;BME280;6454;43.304;24.344;2024-03-02T03:54:11;99860.03;;;8.23;84.94
12781;BME280;6454;43.304;24.344;2024-03-02T03:56:37;99870.59;;;8.29;85.77
12781;BME280;6454;43.304;24.344;2024-03-02T03:59:02;99867.84;;;8.29;85.42
12781;BME280;6454;43.304;24.344;2024-03-02T04:01:28;99881.13;;;8.22;85.90
12781;BME280;6454;43.304;24.344;2024-03-02T04:03:53;99871.59;;;8.20;85.93
12781;BME280;6454;43.304;24.344;2024-03-02T04:06:19;99907.88;;;8.25;85.68
12781;BME280;6454;43.304;24.344;2024-03-02T04:08:44;99859.34;;;8.04;86.55
12781;BME280;6454;43.304;24.344;2024-03-02T04:11:10;99882.75;;;8.10;86.68
12781;BME280;6454;43.304;24.344;2024-03-02T04:13:35;99887.31;;;8.14;85.44
12781;BME280;6454;43.304;24.344;2024-03-02T04:16:01;99894.31;;;8.20;85.61
12781;BME280;6454;43.304;24.344;2024-03-02T04:18:26;99870.78;;;8.19;84.85
12781;BME280;6454;43.304;24.344;2024-03-02T04:20:52;99871.16;;;8.13;85.11
12781;BME280;6454;43.304;24.344;2024-03-02T04:23:17;99906.34;;;8.19;85.69
12781;BME280;6454;43.304;24.344;2024-03-02T04:25:43;99886.16;;;8.15;85.07
12781;BME280;6454;43.304;24.344;2024-03-02T04:28:08;99893.78;;;8.18;84.89
12781;BME280;6454;43.304;24.344;2024-03-02T04:30:34;99870.16;;;8.09;85.86
12781;BME280;6454;43.304;24.344;2024-03-02T04:32:59;99873.50;;;8.06;86.59
12781;BME280;6454;43.304;24.344;2024-03-02T04:35:24;99866.13;;;8.06;85.53
12781;BME280;6454;43.304;24.344;2024-03-02T04:37:51;99888.91;;;8.15;84.97
12781;BME280;6454;43.304;24.344;2024-03-02T04:40:16;99873.41;;;8.11;86.25
12781;BME280;6454;43.304;24.344;2024-03-02T04:42:41;99895.50;;;8.14;85.26
12781;BME280;6454;43.304;24.344;2024-03-02T04:45:08;99889.63;;;8.07;86.55
12781;BME280;6454;43.304;24.344;2024-03-02T04:47:34;99891.13;;;8.13;85.30
12781;BME280;6454;43.304;24.344;2024-03-02T04:49:59;99883.53;;;8.10;86.73
12781;BME280;6454;43.304;24.344;2024-03-02T04:52:24;99902.69;;;8.10;85.53
12781;BME280;6454;43.304;24.344;2024-03-02T04:54:50;99895.91;;;8.08;84.36
12781;BME280;6454;43.304;24.344;2024-03-02T04:57:34;99895.28;;;8.11;85.62
12781;BME280;6454;43.304;24.344;2024-03-02T04:59:59;99920.03;;;8.19;84.78
12781;BME280;6454;43.304;24.344;2024-03-02T05:02:25;99898.75;;;8.16;85.87
12781;BME280;6454;43.304;24.344;2024-03-02T05:04:50;99906.84;;;8.21;84.49
12781;BME280;6454;43.304;24.344;2024-03-02T05:07:16;99903.63;;;8.19;85.97
12781;BME280;6454;43.304;24.344;2024-03-02T05:09:42;99898.97;;;8.20;86.00
12781;BME280;6454;43.304;24.344;2024-03-02T05:12:07;99889.81;;;7.97;85.88
12781;BME280;6454;43.304;24.344;2024-03-02T05:14:51;99893.38;;;7.98;86.67
12781;BME280;6454;43.304;24.344;2024-03-02T05:17:17;99873.00;;;7.90;85.37
12781;BME280;6454;43.304;24.344;2024-03-02T05:19:42;99896.44;;;7.96;86.55
12781;BME280;6454;43.304;24.344;2024-03-02T05:22:08;99914.34;;;8.02;84.82
12781;BME280;6454;43.304;24.344;2024-03-02T05:24:33;99923.69;;;8.01;85.53
12781;BME280;6454;43.304;24.344;2024-03-02T05:26:59;99919.53;;;8.04;86.79
12781;BME280;6454;43.304;24.344;2024-03-02T05:29:24;99905.75;;;7.95;86.65
12781;BME280;6454;43.304;24.344;2024-03-02T05:31:50;99923.97;;;8.00;84.78
12781;BME280;6454;43.304;24.344;2024-03-02T05:34:16;99929.16;;;8.01;86.94
12781;BME280;6454;43.304;24.344;2024-03-02T05:36:41;99933.59;;;7.97;86.48
12781;BME280;6454;43.304;24.344;2024-03-02T05:39:06;99939.69;;;8.08;85.62
12781;BME280;6454;43.304;24.344;2024-03-02T05:41:34;99935.63;;;8.05;86.01
12781;BME280;6454;43.304;24.344;2024-03-02T05:44:00;99922.66;;;7.97;86.80
12781;BME280;6454;43.304;24.344;2024-03-02T05:46:26;99920.41;;;7.99;85.31
12781;BME280;6454;43.304;24.344;2024-03-02T05:48:52;99913.94;;;7.95;87.15
12781;BME280;6454;43.304;24.344;2024-03-02T05:51:18;99953.69;;;8.06;85.84
12781;BME280;6454;43.304;24.344;2024-03-02T05:53:43;99944.16;;;8.04;84.75
12781;BME280;6454;43.304;24.344;2024-03-02T05:56:12;99950.94;;;8.06;85.93
12781;BME280;6454;43.304;24.344;2024-03-02T05:58:38;99968.25;;;8.02;85.57
12781;BME280;6454;43.304;24.344;2024-03-02T06:01:22;99954.28;;;8.03;84.82
12781;BME280;6454;43.304;24.344;2024-03-02T06:03:54;99979.81;;;7.99;84.86
12781;BME280;6454;43.304;24.344;2024-03-02T06:06:19;99969.59;;;8.04;86.34
12781;BME280;6454;43.304;24.344;2024-03-02T06:08:46;99960.56;;;7.90;85.00
12781;BME280;6454;43.304;24.344;2024-03-02T06:11:11;99986.31;;;8.03;84.75
12781;BME280;6454;43.304;24.344;2024-03-02T06:13:37;99969.88;;;8.03;84.73
12781;BME280;6454;43.304;24.344;2024-03-02T06:16:02;99983.44;;;7.94;87.14
12781;BME280;6454;43.304;24.344;2024-03-02T06:18:27;99972.41;;;7.99;85.27
12781;BME280;6454;43.304;24.344;2024-03-02T06:20:53;99931.47;;;7.94;86.01
12781;BME280;6454;43.304;24.344;2024-03-02T06:23:18;99943.13;;;8.00;86.39
12781;BME280;6454;43.304;24.344;2024-03-02T06:25:44;99982.75;;;8.02;85.15
12781;BME280;6454;43.304;24.344;2024-03-02T06:28:09;99962.59;;;7.98;85.93
12781;BME280;6454;43.304;24.344;2024-03-02T06:30:35;99968.22;;;7.88;87.21
12781;BME280;6454;43.304;24.344;2024-03-02T06:33:00;99966.03;;;7.90;87.06
12781;BME280;6454;43.304;24.344;2024-03-02T06:35:27;99956.59;;;7.83;85.72
12781;BME280;6454;43.304;24.344;2024-03-02T06:37:52;99946.75;;;7.82;86.52
12781;BME280;6454;43.304;24.344;2024-03-02T06:40:18;99968.22;;;7.88;85.23
12781;BME280;6454;43.304;24.344;2024-03-02T06:42:44;99958.09;;;7.89;85.64
12781;BME280;6454;43.304;24.344;2024-03-02T06:45:09;99950.91;;;7.79;86.51
12781;BME280;6454;43.304;24.344;2024-03-02T06:47:35;99955.19;;;7.85;86.68
12781;BME280;6454;43.304;24.344;2024-03-02T06:50:00;99973.50;;;7.85;86.45
12781;BME280;6454;43.304;24.344;2024-03-02T06:52:25;99972.81;;;7.93;85.11
12781;BME280;6454;43.304;24.344;2024-03-02T06:54:51;99933.34;;;7.80;85.47
12781;BME280;6454;43.304;24.344;2024-03-02T06:57:16;99947.19;;;8.02;85.11
12781;BME280;6454;43.304;24.344;2024-03-02T06:59:42;99931.66;;;7.84;87.31
12781;BME280;6454;43.304;24.344;2024-03-02T07:02:07;99947.38;;;7.92;86.78
12781;BME280;6454;43.304;24.344;2024-03-02T07:04:34;99965.44;;;7.93;87.17
12781;BME280;6454;43.304;24.344;2024-03-02T07:06:59;99976.19;;;8.03;87.00
12781;BME280;6454;43.304;24.344;2024-03-02T07:09:25;99946.56;;;8.05;86.26
12781;BME280;6454;43.304;24.344;2024-03-02T07:11:51;99941.19;;;8.00;85.82
12781;BME280;6454;43.304;24.344;2024-03-02T07:14:16;99945.97;;;8.08;86.78
12781;BME280;6454;43.304;24.344;2024-03-02T07:16:42;99969.50;;;8.09;86.57
12781;BME280;6454;43.304;24.344;2024-03-02T07:19:08;99971.22;;;8.19;85.28
12781;BME280;6454;43.304;24.344;2024-03-02T07:21:34;99971.44;;;8.22;84.07
12781;BME280;6454;43.304;24.344;2024-03-02T07:23:59;99967.16;;;8.16;84.03
12781;BME280;6454;43.304;24.344;2024-03-02T07:26:28;99977.00;;;8.17;84.05
12781;BME280;6454;43.304;24.344;2024-03-02T07:28:55;99977.72;;;8.23;85.45
12781;BME280;6454;43.304;24.344;2024-03-02T07:31:20;99960.50;;;8.22;84.12
12781;BME280;6454;43.304;24.344;2024-03-02T07:33:46;99964.97;;;8.32;85.03
12781;BME280;6454;43.304;24.344;2024-03-02T07:36:12;99969.59;;;8.04;86.35
12781;BME280;6454;43.304;24.344;2024-03-02T07:38:37;99973.13;;;8.18;84.68
12781;BME280;6454;43.304;24.344;2024-03-02T07:41:03;99986.13;;;8.26;85.67
12781;BME280;6454;43.304;24.344;2024-03-02T07:43:30;99994.78;;;8.33;84.29
12781;BME280;6454;43.304;24.344;2024-03-02T07:45:57;99992.47;;;8.41;84.16
12781;BME280;6454;43.304;24.344;2024-03-02T07:48:22;99981.50;;;8.41;83.34
12781;BME280;6454;43.304;24.344;2024-03-02T07:50:48;99989.22;;;8.38;84.91
12781;BME280;6454;43.304;24.344;2024-03-02T07:53:13;99982.72;;;8.34;84.52
12781;BME280;6454;43.304;24.344;2024-03-02T07:55:40;99990.84;;;8.40;82.91
12781;BME280;6454;43.304;24.344;2024-03-02T07:58:06;99993.59;;;8.40;83.61
12781;BME280;6454;43.304;24.344;2024-03-02T08:00:31;99994.34;;;8.26;84.67
12781;BME280;6454;43.304;24.344;2024-03-02T08:02:57;100013.00;;;8.24;86.27
12781;BME280;6454;43.304;24.344;2024-03-02T08:05:23;99990.38;;;8.19;85.04
12781;BME280;6454;43.304;24.344;2024-03-02T08:07:48;100009.25;;;8.20;82.83
12781;BME280;6454;43.304;24.344;2024-03-02T08:10:18;100013.09;;;8.19;84.13
12781;BME280;6454;43.304;24.344;2024-03-02T08:12:46;100017.47;;;8.20;83.27
12781;BME280;6454;43.304;24.344;2024-03-02T08:15:11;100003.94;;;8.10;84.58
12781;BME280;6454;43.304;24.344;2024-03-02T08:17:40;100008.63;;;8.10;84.38
12781;BME280;6454;43.304;24.344;2024-03-02T08:20:13;100020.81;;;8.17;83.21
12781;BME280;6454;43.304;24.344;2024-03-02T08:22:39;100002.75;;;8.16;83.20
12781;BME280;6454;43.304;24.344;2024-03-02T08:25:05;100017.16;;;8.22;83.58
12781;BME280;6454;43.304;24.344;2024-03-02T08:27:31;100013.59;;;8.21;84.24
12781;BME280;6454;43.304;24.344;2024-03-02T08:29:57;100009.97;;;8.26;83.25
12781;BME280;6454;43.304;24.344;2024-03-02T08:32:23;99992.00;;;8.06;84.20
12781;BME280;6454;43.304;24.344;2024-03-02T08:34:48;100005.03;;;8.28;82.41
12781;BME280;6454;43.304;24.344;2024-03-02T08:37:13;100000.94;;;8.25;83.89
12781;BME280;6454;43.304;24.344;2024-03-02T08:39:39;100016.97;;;8.32;83.79
12781;BME280;6454;43.304;24.344;2024-03-02T08:42:07;100010.19;;;8.29;82.67
12781;BME280;6454;43.304;24.344;2024-03-02T08:44:35;99988.97;;;8.21;84.30
12781;BME280;6454;43.304;24.344;2024-03-02T08:47:00;99991.59;;;8.26;84.37
12781;BME280;6454;43.304;24.344;2024-03-02T08:49:27;100007.34;;;8.34;84.35
12781;BME280;6454;43.304;24.344;2024-03-02T08:51:52;100001.59;;;8.36;82.71
12781;BME280;6454;43.304;24.344;2024-03-02T08:54:22;99998.34;;;8.34;84.24
12781;BME280;6454;43.304;24.344;2024-03-02T08:56:51;100003.19;;;8.37;83.20
12781;BME280;6454;43.304;24.344;2024-03-02T08:59:16;100012.66;;;8.45;82.27
12781;BME280;6454;43.304;24.344;2024-03-02T09:01:42;100007.28;;;8.40;83.31
12781;BME280;6454;43.304;24.344;2024-03-02T09:04:08;100012.94;;;8.43;82.72
12781;BME280;6454;43.304;24.344;2024-03-02T09:06:34;99995.41;;;8.44;83.41
12781;BME280;6454;43.304;24.344;2024-03-02T09:09:00;100005.16;;;8.36;84.00
12781;BME280;6454;43.304;24.344;2024-03-02T09:11:25;100010.72;;;8.45;84.44
12781;BME280;6454;43.304;24.344;2024-03-02T09:13:51;100004.22;;;8.55;83.88
12781;BME280;6454;43.304;24.344;2024-03-02T09:16:17;100009.31;;;8.48;84.05
12781;BME280;6454;43.304;24.344;2024-03-02T09:18:42;100005.03;;;8.42;83.37
12781;BME280;6454;43.304;24.344;2024-03-02T09:21:08;100008.91;;;8.54;82.38
12781;BME280;6454;43.304;24.344;2024-03-02T09:23:33;100016.22;;;8.59;83.07
12781;BME280;6454;43.304;24.344;2024-03-02T09:25:59;100007.69;;;8.60;82.40
12781;BME280;6454;43.304;24.344;2024-03-02T09:28:25;100002.81;;;8.71;82.46
12781;BME280;6454;43.304;24.344;2024-03-02T09:30:50;99996.34;;;8.53;83.67
12781;BME280;6454;43.304;24.344;2024-03-02T09:33:15;99985.56;;;8.43;84.24
12781;BME280;6454;43.304;24.344;2024-03-02T09:35:41;99990.66;;;8.50;84.44
12781;BME280;6454;43.304;24.344;2024-03-02T09:38:06;99987.41;;;8.48;84.38
12781;BME280;6454;43.304;24.344;2024-03-02T09:40:32;99954.94;;;8.41;83.78
12781;BME280;6454;43.304;24.344;2024-03-02T09:42:57;99967.94;;;8.49;83.61
12781;BME280;6454;43.304;24.344;2024-03-02T09:45:24;99982.94;;;8.52;83.20
12781;BME280;6454;43.304;24.344;2024-03-02T09:47:50;99985.38;;;8.53;83.96
12781;BME280;6454;43.304;24.344;2024-03-02T09:50:16;99969.34;;;8.47;84.37
12781;BME280;6454;43.304;24.344;2024-03-02T09:52:42;99970.75;;;8.44;84.08
12781;BME280;6454;43.304;24.344;2024-03-02T09:55:09;99984.97;;;8.60;83.23
12781;BME280;6454;43.304;24.344;2024-03-02T09:57:34;100003.19;;;8.64;84.51
12781;BME280;6454;43.304;24.344;2024-03-02T10:00:00;100001.38;;;8.73;84.01
12781;BME280;6454;43.304;24.344;2024-03-02T10:02:25;100000.47;;;8.78;82.67
12781;BME280;6454;43.304;24.344;2024-03-02T10:04:51;100001.59;;;8.63;83.66
12781;BME280;6454;43.304;24.344;2024-03-02T10:07:18;100009.59;;;8.73;83.69
12781;BME280;6454;43.304;24.344;2024-03-02T10:09:45;99994.97;;;8.78;82.64
12781;BME280;6454;43.304;24.344;2024-03-02T10:12:13;100002.47;;;8.86;82.50
12781;BME280;6454;43.304;24.344;2024-03-02T10:14:39;99998.97;;;8.72;83.60
12781;BME280;6454;43.304;24.344;2024-03-02T10:17:07;100005.31;;;8.81;81.93
12781;BME280;6454;43.304;24.344;2024-03-02T10:19:33;99995.50;;;8.80;82.76
12781;BME280;6454;43.304;24.344;2024-03-02T10:22:00;100002.19;;;8.87;81.20
12781;BME280;6454;43.304;24.344;2024-03-02T10:24:27;99989.44;;;8.56;83.49
12781;BME280;6454;43.304;24.344;2024-03-02T10:26:53;99972.59;;;8.49;84.66
12781;BME280;6454;43.304;24.344;2024-03-02T10:29:19;99990.84;;;8.67;83.56
12781;BME280;6454;43.304;24.344;2024-03-02T10:31:46;99998.53;;;8.78;83.17
12781;BME280;6454;43.304;24.344;2024-03-02T10:34:13;100003.91;;;8.83;82.68
12781;BME280;6454;43.304;24.344;2024-03-02T10:36:42;99989.22;;;8.79;81.76
12781;BME280;6454;43.304;24.344;2024-03-02T10:39:09;99998.34;;;8.88;82.10
12781;BME280;6454;43.304;24.344;2024-03-02T10:41:36;100003.13;;;8.83;81.98
12781;BME280;6454;43.304;24.344;2024-03-02T10:44:07;99992.22;;;8.91;82.68
12781;BME280;6454;43.304;24.344;2024-03-02T10:46:35;99985.34;;;8.94;81.67
12781;BME280;6454;43.304;24.344;2024-03-02T10:49:02;99983.72;;;8.93;82.34
12781;BME280;6454;43.304;24.344;2024-03-02T10:51:28;99975.78;;;8.91;83.12
12781;BME280;6454;43.304;24.344;2024-03-02T10:53:57;99961.38;;;8.86;81.35
12781;BME280;6454;43.304;24.344;2024-03-02T10:56:31;99946.38;;;8.83;83.71
12781;BME280;6454;43.304;24.344;2024-03-02T10:59:21;99969.31;;;8.74;84.49
12781;BME280;6454;43.304;24.344;2024-03-02T11:01:50;99990.19;;;8.83;83.56
12781;BME280;6454;43.304;24.344;2024-03-02T11:04:18;99985.75;;;8.74;82.89
12781;BME280;6454;43.304;24.344;2024-03-02T11:06:48;99993.88;;;8.79;84.04
12781;BME280;6454;43.304;24.344;2024-03-02T11:09:14;99977.22;;;8.75;83.10
12781;BME280;6454;43.304;24.344;2024-03-02T11:11:43;99983.03;;;8.74;83.86
12781;BME280;6454;43.304;24.344;2024-03-02T11:14:17;99995.91;;;8.73;83.05
12781;BME280;6454;43.304;24.344;2024-03-02T11:16:46;100007.19;;;8.72;83.02
12781;BME280;6454;43.304;24.344;2024-03-02T11:19:13;100001.69;;;8.72;82.28
12781;BME280;6454;43.304;24.344;2024-03-02T11:21:39;99996.34;;;8.67;83.36
12781;BME280;6454;43.304;24.344;2024-03-02T11:26:49;99986.38;;;8.71;81.83
12781;BME280;6454;43.304;24.344;2024-03-02T11:32:00;100005.03;;;8.82;83.00
12781;BME280;6454;43.304;24.344;2024-03-02T11:34:34;99988.72;;;8.77;81.12
12781;BME280;6454;43.304;24.344;2024-03-02T11:37:01;99991.50;;;8.86;81.14
12781;BME280;6454;43.304;24.344;2024-03-02T11:39:28;99996.91;;;8.91;82.52
12781;BME280;6454;43.304;24.344;2024-03-02T11:41:54;99988.16;;;8.89;81.69
12781;BME280;6454;43.304;24.344;2024-03-02T11:44:20;99969.53;;;8.77;81.71
12781;BME280;6454;43.304;24.344;2024-03-02T11:47:07;99993.25;;;8.82;82.75
12781;BME280;6454;43.304;24.344;2024-03-02T11:52:15;99993.06;;;8.78;82.13
12781;BME280;6454;43.304;24.344;2024-03-02T11:54:44;100009.69;;;8.95;81.60
12781;BME280;6454;43.304;24.344;2024-03-02T11:57:16;99985.66;;;8.79;81.83
12781;BME280;6454;43.304;24.344;2024-03-02T11:59:44;100007.28;;;8.94;82.11
12781;BME280;6454;43.304;24.344;2024-03-02T12:02:20;99999.84;;;8.81;80.45
12781;BME280;6454;43.304;24.344;2024-03-02T12:04:47;99996.91;;;8.91;82.02
12781;BME280;6454;43.304;24.344;2024-03-02T12:07:19;99998.34;;;8.88;81.58
12781;BME280;6454;43.304;24.344;2024-03-02T12:09:46;99984.53;;;8.93;81.17
12781;BME280;6454;43.304;24.344;2024-03-02T12:12:11;99964.84;;;8.78;82.84
12781;BME280;6454;43.304;24.344;2024-03-02T12:14:39;99958.00;;;8.67;83.62
12781;BME280;6454;43.304;24.344;2024-03-02T12:17:05;99958.16;;;8.70;83.11
12781;BME280;6454;43.304;24.344;2024-03-02T12:19:32;99975.00;;;8.77;82.86
12781;BME280;6454;43.304;24.344;2024-03-02T12:21:59;99975.59;;;8.88;81.60
12781;BME280;6454;43.304;24.344;2024-03-02T12:24:27;99966.69;;;8.82;82.16
12781;BME280;6454;43.304;24.344;2024-03-02T12:26:53;99969.91;;;8.84;83.27
12781;BME280;6454;43.304;24.344;2024-03-02T12:29:20;99972.25;;;8.91;82.92
12781;BME280;6454;43.304;24.344;2024-03-02T12:31:48;99982.69;;;8.89;83.23
12781;BME280;6454;43.304;24.344;2024-03-02T12:34:15;99992.03;;;8.88;81.75
12781;BME280;6454;43.304;24.344;2024-03-02T12:36:41;99998.84;;;8.90;81.84
12781;BME280;6454;43.304;24.344;2024-03-02T12:39:10;100017.19;;;8.90;82.16
12781;BME280;6454;43.304;24.344;2024-03-02T12:41:38;100023.28;;;8.87;81.61
12781;BME280;6454;43.304;24.344;2024-03-02T12:44:07;100023.19;;;8.92;82.51
12781;BME280;6454;43.304;24.344;2024-03-02T12:46:32;100017.19;;;8.90;81.90
12781;BME280;6454;43.304;24.344;2024-03-02T12:48:58;100000.56;;;8.86;82.53
12781;BME280;6454;43.304;24.344;2024-03-02T12:51:30;100007.75;;;8.96;81.68
12781;BME280;6454;43.304;24.344;2024-03-02T12:53:57;100014.66;;;8.93;81.81
12781;BME280;6454;43.304;24.344;2024-03-02T12:56:24;100021.66;;;8.86;82.53
12781;BME280;6454;43.304;24.344;2024-03-02T12:58:56;99998.94;;;8.85;81.57
12781;BME280;6454;43.304;24.344;2024-03-02T13:01:21;100005.63;;;8.93;81.55
12781;BME280;6454;43.304;24.344;2024-03-02T13:03:51;99999.75;;;8.86;80.87
12781;BME280;6454;43.304;24.344;2024-03-02T13:06:18;100016.59;;;8.93;81.31
12781;BME280;6454;43.304;24.344;2024-03-02T13:08:45;100013.84;;;8.93;81.52
12781;BME280;6454;43.304;24.344;2024-03-02T13:11:11;100016.97;;;9.00;80.71
12781;BME280;6454;43.304;24.344;2024-03-02T13:13:36;100001.16;;;8.97;81.34
12781;BME280;6454;43.304;24.344;2024-03-02T13:16:03;100004.78;;;9.06;81.49
12781;BME280;6454;43.304;24.344;2024-03-02T13:18:29;100011.91;;;9.07;81.92